Schnellsuche:     vonnach     am:               Ankunft heute   Abflug heute   
Wetterdaten des Sylter Flughafens. Alle Angaben sind ohne Gewähr.



Datum: 2016-05-31 09:50 UTC
   
Windrichtung: 60°
Windgeschwindigkeit: 8 - 18 Kt.
QNH: 1012 hPa
Temperatur: 22 °C
Taupunkt: 17 °C
rel. Luftfeuchte: 76 %

METAR EDXW 310950Z 06013KT CAVOK 22/18 Q1012 RMK ATIS ECH=

TAF EDXW 310857Z 3109/3118 06014KT 9999 FEW030
 
Wettercam am Vorfeld 1:




Wolkenhöhen in den letzten 48 Stunden:






 


Im Jettempo nach Sylt!



airberlin

Zürich, Nürnberg, Stuttgart, München, Berlin/Tegel und Düsseldorf
Die airberlin fliegt vom 04. Juni bis zum 27. August 2017 nach Zürich, vom 04. Juni bis zum 08. Oktober 2016 nach Nürnberg, vom 30. Mai bis zum 30. August 2017 nach Stuttgart, vom 04. Juni bis zum 30. Oktober 2016 nach München, vom 04. Juni bis zum 30. Oktober 2016 nach Berlin/Tegel und vom 30. Mai bis zum 30. August 2017 nach Düsseldorf. Zur Seite der airberlin: www.airberlin.com

Lufthansa

München und Frankfurt/Main
Die Lufthansa fliegt vom 04. Juni bis zum 03. Oktober 2017 nach München und vom 04. Juni bis zum 21. Oktober 2017 nach Frankfurt/Main. Zur Seite der Lufthansa: www.lufthansa.de

Syltair

Hamburg
Die Syltair fliegt vom 24. März bis zum 03. Oktober 2016 nach Hamburg. Zur Seite der Syltair: www.syltair.de